THY159 LTFJ-UBBB
Flight info
| Callsign | THY159 |
|---|---|
| Flight time | 2h 18m |
| Altitude | 37000 |
| Route | VICE1J VICEN T380 ASMAP L333 EVLIG UL333 LATGA UT363 ESB UT364 ILHAN UW71 TBN UG261 NOLGA N61 LAGAS M747 LUSAL M11 ERLEV ERLE1H |
| Aircraft | B738/M-SDE2E3FGIJ1RWYZ/LB1D1 |
Departure
| Time | 2025-09-05 08:08 |
|---|---|
| Airport | Istanbul Sabiha Gökçen International Airport (LTFJ) |
Arrival
| Time | 2025-09-05 10:27 |
|---|---|
| Airport | Heydar Aliyev International Airport (UBBB) |
| Time | Latitude | Longitude | Altitude | Speed | Heading |
|---|---|---|---|---|---|
| 2025-09-05 07:25 | 40.90437 | 29.31633 | 320 ft | 0 kts | 154° |
| 2025-09-05 07:46 | 40.90438 | 29.31632 | 320 ft | 1 kts | 154° |
| 2025-09-05 07:46 | 40.90470 | 29.31612 | 319 ft | 2 kts | 154° |
| 2025-09-05 07:46 | 40.90487 | 29.31603 | 316 ft | 3 kts | 173° |
| 2025-09-05 07:47 | 40.90518 | 29.31622 | 316 ft | 3 kts | 242° |
| 2025-09-05 07:48 | 40.90527 | 29.31646 | 317 ft | 2 kts | 244° |
| 2025-09-05 07:50 | 40.90494 | 29.31554 | 320 ft | 15 kts | 248° |
| 2025-09-05 07:50 | 40.90433 | 29.31397 | 319 ft | 23 kts | 245° |
| 2025-09-05 07:50 | 40.90311 | 29.31061 | 319 ft | 17 kts | 244° |
| 2025-09-05 07:51 | 40.90200 | 29.30881 | 320 ft | 10 kts | 159° |
| 2025-09-05 07:52 | 40.90162 | 29.30906 | 320 ft | 0 kts | 154° |
| 2025-09-05 07:52 | 40.90151 | 29.30913 | 320 ft | 3 kts | 154° |
| 2025-09-05 07:52 | 40.90115 | 29.30931 | 320 ft | 7 kts | 169° |
| 2025-09-05 07:53 | 40.89980 | 29.30688 | 318 ft | 16 kts | 246° |
| 2025-09-05 07:54 | 40.89965 | 29.30648 | 320 ft | 0 kts | 244° |
| 2025-09-05 07:54 | 40.89953 | 29.30613 | 320 ft | 9 kts | 244° |
| 2025-09-05 07:55 | 40.89869 | 29.30389 | 319 ft | 18 kts | 240° |
| 2025-09-05 07:56 | 40.89693 | 29.29909 | 320 ft | 18 kts | 244° |
| 2025-09-05 07:56 | 40.89590 | 29.29625 | 318 ft | 16 kts | 243° |
| 2025-09-05 07:57 | 40.89632 | 29.29466 | 320 ft | 9 kts | 306° |
| 2025-09-05 07:57 | 40.89640 | 29.29314 | 318 ft | 6 kts | 245° |
| 2025-09-05 07:58 | 40.89639 | 29.29311 | 319 ft | 0 kts | 244° |
| 2025-09-05 08:03 | 40.89636 | 29.29304 | 318 ft | 2 kts | 243° |
| 2025-09-05 08:04 | 40.89624 | 29.29270 | 318 ft | 1 kts | 244° |
| 2025-09-05 08:04 | 40.89547 | 29.29216 | 320 ft | 13 kts | 187° |
| 2025-09-05 08:05 | 40.89492 | 29.29210 | 320 ft | 3 kts | 185° |
| 2025-09-05 08:05 | 40.89457 | 29.29214 | 319 ft | 6 kts | 162° |
| 2025-09-05 08:06 | 40.89361 | 29.29273 | 319 ft | 0 kts | 155° |
| 2025-09-05 08:06 | 40.89359 | 29.29274 | 319 ft | 1 kts | 155° |
| 2025-09-05 08:06 | 40.89296 | 29.29328 | 321 ft | 8 kts | 127° |
| 2025-09-05 08:07 | 40.89322 | 29.29468 | 321 ft | 10 kts | 64° |
| 2025-09-05 08:08 | 40.90322 | 29.32143 | 1319 ft | 155 kts | 64° |
| 2025-09-05 08:08 | 40.91230 | 29.34744 | 3005 ft | 162 kts | 65° |
| 2025-09-05 08:09 | 40.92152 | 29.37562 | 4384 ft | 181 kts | 80° |
| 2025-09-05 08:09 | 40.91858 | 29.40995 | 5668 ft | 194 kts | 111° |
| 2025-09-05 08:10 | 40.90308 | 29.44133 | 6619 ft | 224 kts | 133° |
| 2025-09-05 08:10 | 40.89001 | 29.45456 | 6990 ft | 248 kts | 150° |
| 2025-09-05 08:10 | 40.85385 | 29.46132 | 7765 ft | 285 kts | 193° |
| 2025-09-05 08:11 | 40.81725 | 29.43804 | 9382 ft | 286 kts | 184° |
| 2025-09-05 08:12 | 40.77095 | 29.47604 | 10015 ft | 279 kts | 123° |
| 2025-09-05 08:12 | 40.75205 | 29.52012 | 9983 ft | 277 kts | 96° |
| 2025-09-05 08:13 | 40.76241 | 29.55900 | 10021 ft | 279 kts | 56° |
| 2025-09-05 08:13 | 40.76978 | 29.58253 | 10001 ft | 281 kts | 87° |
| 2025-09-05 08:14 | 40.74672 | 29.65409 | 9996 ft | 288 kts | 110° |
| 2025-09-05 08:14 | 40.74035 | 29.67863 | 9985 ft | 285 kts | 107° |
| 2025-09-05 08:14 | 40.73273 | 29.72895 | 9993 ft | 278 kts | 92° |
| 2025-09-05 08:15 | 40.73229 | 29.77974 | 9994 ft | 279 kts | 90° |
| 2025-09-05 08:16 | 40.73156 | 29.85854 | 9995 ft | 287 kts | 91° |
| 2025-09-05 08:16 | 40.73070 | 29.91121 | 9992 ft | 286 kts | 91° |
| 2025-09-05 08:16 | 40.73023 | 29.93726 | 9988 ft | 282 kts | 91° |
| 2025-09-05 08:17 | 40.72927 | 29.98808 | 9991 ft | 277 kts | 92° |
| 2025-09-05 08:17 | 40.72825 | 30.03954 | 10007 ft | 284 kts | 91° |
| 2025-09-05 08:18 | 40.72201 | 30.09049 | 10061 ft | 285 kts | 109° |
| 2025-09-05 08:18 | 40.70753 | 30.14367 | 10406 ft | 332 kts | 109° |
| 2025-09-05 08:19 | 40.69167 | 30.20334 | 11412 ft | 351 kts | 109° |
| 2025-09-05 08:20 | 40.66759 | 30.29604 | 13380 ft | 363 kts | 105° |
| 2025-09-05 08:20 | 40.66284 | 30.32889 | 13972 ft | 367 kts | 97° |
| 2025-09-05 08:21 | 40.65474 | 30.43041 | 15638 ft | 378 kts | 97° |
| 2025-09-05 08:21 | 40.64909 | 30.49950 | 16718 ft | 384 kts | 97° |
| 2025-09-05 08:21 | 40.64615 | 30.53473 | 17255 ft | 388 kts | 97° |
| 2025-09-05 08:22 | 40.64005 | 30.60617 | 18329 ft | 395 kts | 97° |
| 2025-09-05 08:22 | 40.63379 | 30.67824 | 19301 ft | 400 kts | 98° |
| 2025-09-05 08:23 | 40.62408 | 30.75073 | 20293 ft | 404 kts | 106° |
| 2025-09-05 08:24 | 40.60034 | 30.85791 | 21717 ft | 411 kts | 107° |
| 2025-09-05 08:24 | 40.58448 | 30.93067 | 22698 ft | 415 kts | 107° |
| 2025-09-05 08:25 | 40.56878 | 31.00434 | 23605 ft | 420 kts | 107° |
| 2025-09-05 08:25 | 40.55303 | 31.07849 | 24256 ft | 426 kts | 107° |
| 2025-09-05 08:25 | 40.54502 | 31.11610 | 24552 ft | 430 kts | 107° |
| 2025-09-05 08:26 | 40.51208 | 31.26955 | 25873 ft | 441 kts | 108° |
| 2025-09-05 08:29 | 40.43419 | 31.62837 | 28367 ft | 467 kts | 109° |
| 2025-09-05 08:30 | 40.37014 | 31.92029 | 30073 ft | 483 kts | 109° |
| 2025-09-05 08:33 | 40.28921 | 32.30317 | 32460 ft | 488 kts | 108° |
| 2025-09-05 08:34 | 40.22924 | 32.60509 | 34261 ft | 491 kts | 108° |
| 2025-09-05 08:37 | 40.15678 | 32.99500 | 36150 ft | 500 kts | 89° |
| 2025-09-05 08:38 | 40.26260 | 33.27974 | 37056 ft | 503 kts | 60° |
| 2025-09-05 08:41 | 40.41615 | 33.63841 | 37060 ft | 500 kts | 60° |
| 2025-09-05 08:42 | 40.50222 | 33.93628 | 37054 ft | 500 kts | 71° |
| 2025-09-05 08:45 | 40.61926 | 34.31894 | 37048 ft | 503 kts | 68° |
| 2025-09-05 08:46 | 40.70990 | 34.61871 | 37035 ft | 503 kts | 68° |
| 2025-09-05 08:49 | 40.82470 | 35.00584 | 37027 ft | 503 kts | 68° |
| 2025-09-05 08:50 | 40.91260 | 35.30727 | 36999 ft | 502 kts | 68° |
| 2025-09-05 08:52 | 41.01227 | 35.65255 | 37003 ft | 501 kts | 68° |
| 2025-09-05 08:54 | 41.11255 | 35.99737 | 37006 ft | 503 kts | 68° |
| 2025-09-05 08:56 | 41.20985 | 36.34605 | 36999 ft | 504 kts | 69° |
| 2025-09-05 08:58 | 41.25531 | 36.70646 | 36993 ft | 503 kts | 98° |
| 2025-09-05 09:00 | 41.22577 | 37.07603 | 36981 ft | 504 kts | 97° |
| 2025-09-05 09:02 | 41.19791 | 37.44684 | 36971 ft | 505 kts | 97° |
| 2025-09-05 09:04 | 41.17102 | 37.80426 | 36976 ft | 508 kts | 98° |
| 2025-09-05 09:06 | 41.14069 | 38.17733 | 36984 ft | 509 kts | 97° |
| 2025-09-05 09:08 | 41.10972 | 38.55042 | 36976 ft | 509 kts | 97° |
| 2025-09-05 09:10 | 41.07690 | 38.92278 | 36983 ft | 509 kts | 98° |
| 2025-09-05 09:13 | 41.03798 | 39.34311 | 37002 ft | 512 kts | 98° |
| 2025-09-05 09:14 | 41.00701 | 39.67150 | 36989 ft | 514 kts | 98° |
| 2025-09-05 09:16 | 41.03189 | 40.04466 | 36981 ft | 513 kts | 78° |
| 2025-09-05 09:18 | 41.08665 | 40.41598 | 36975 ft | 515 kts | 78° |
| 2025-09-05 09:20 | 41.14026 | 40.79013 | 37001 ft | 517 kts | 79° |
| 2025-09-05 09:22 | 41.19289 | 41.16661 | 36990 ft | 518 kts | 79° |
| 2025-09-05 09:25 | 41.25055 | 41.59034 | 37061 ft | 521 kts | 79° |
| 2025-09-05 09:27 | 41.30083 | 41.96996 | 37065 ft | 523 kts | 80° |
| 2025-09-05 09:29 | 41.34993 | 42.35081 | 37101 ft | 523 kts | 80° |
| 2025-09-05 09:31 | 41.39790 | 42.73340 | 37113 ft | 524 kts | 80° |
| 2025-09-05 09:33 | 41.44443 | 43.11564 | 37120 ft | 520 kts | 81° |
| 2025-09-05 09:35 | 41.48933 | 43.49719 | 37113 ft | 522 kts | 81° |
| 2025-09-05 09:36 | 41.52781 | 43.83344 | 37132 ft | 525 kts | 81° |
| 2025-09-05 09:38 | 41.56589 | 44.21922 | 37094 ft | 525 kts | 95° |
| 2025-09-05 09:41 | 41.47190 | 44.63443 | 37062 ft | 520 kts | 111° |
| 2025-09-05 09:42 | 41.39164 | 44.95423 | 37023 ft | 521 kts | 112° |
| 2025-09-05 09:45 | 41.28654 | 45.36550 | 37006 ft | 523 kts | 112° |
| 2025-09-05 09:46 | 41.20326 | 45.68634 | 36993 ft | 525 kts | 112° |
| 2025-09-05 09:49 | 41.09403 | 46.09616 | 36983 ft | 523 kts | 112° |
| 2025-09-05 09:50 | 41.01272 | 46.39871 | 36984 ft | 524 kts | 112° |
| 2025-09-05 09:53 | 40.90289 | 46.80762 | 36983 ft | 525 kts | 112° |
| 2025-09-05 09:54 | 40.81564 | 47.12498 | 36973 ft | 525 kts | 113° |
| 2025-09-05 09:57 | 40.70237 | 47.53060 | 35458 ft | 522 kts | 113° |
| 2025-09-05 09:58 | 40.61350 | 47.84348 | 33668 ft | 518 kts | 113° |
| 2025-09-05 10:01 | 40.62053 | 48.26292 | 27448 ft | 502 kts | 82° |
| 2025-09-05 10:02 | 40.64571 | 48.48430 | 24621 ft | 478 kts | 83° |
| 2025-09-05 10:02 | 40.65548 | 48.57011 | 23449 ft | 472 kts | 83° |
| 2025-09-05 10:03 | 40.66507 | 48.65472 | 22213 ft | 464 kts | 83° |
| 2025-09-05 10:04 | 40.67908 | 48.77928 | 20532 ft | 450 kts | 83° |
| 2025-09-05 10:04 | 40.68807 | 48.85983 | 19444 ft | 442 kts | 83° |
| 2025-09-05 10:05 | 40.69690 | 48.93963 | 18342 ft | 436 kts | 83° |
| 2025-09-05 10:05 | 40.70552 | 49.01789 | 17152 ft | 429 kts | 83° |
| 2025-09-05 10:06 | 40.71400 | 49.09524 | 16070 ft | 421 kts | 83° |
| 2025-09-05 10:06 | 40.71810 | 49.13278 | 15548 ft | 417 kts | 83° |
| 2025-09-05 10:06 | 40.72629 | 49.20820 | 14484 ft | 411 kts | 83° |
| 2025-09-05 10:07 | 40.73097 | 49.28162 | 13876 ft | 395 kts | 92° |
| 2025-09-05 10:08 | 40.72713 | 49.38820 | 13487 ft | 382 kts | 94° |
| 2025-09-05 10:08 | 40.72492 | 49.45810 | 13257 ft | 381 kts | 93° |
| 2025-09-05 10:09 | 40.72310 | 49.52897 | 12643 ft | 392 kts | 93° |
| 2025-09-05 10:09 | 40.72224 | 49.56496 | 12196 ft | 391 kts | 92° |
| 2025-09-05 10:10 | 40.71960 | 49.67090 | 10901 ft | 381 kts | 93° |
| 2025-09-05 10:10 | 40.71545 | 49.70497 | 10468 ft | 373 kts | 111° |
| 2025-09-05 10:10 | 40.68393 | 49.75528 | 9623 ft | 354 kts | 152° |
| 2025-09-05 10:11 | 40.63842 | 49.77149 | 8979 ft | 326 kts | 183° |
| 2025-09-05 10:12 | 40.57666 | 49.76151 | 8295 ft | 291 kts | 190° |
| 2025-09-05 10:12 | 40.53590 | 49.75387 | 7446 ft | 299 kts | 189° |
| 2025-09-05 10:12 | 40.51548 | 49.75018 | 7027 ft | 301 kts | 188° |
| 2025-09-05 10:13 | 40.47369 | 49.74279 | 6180 ft | 302 kts | 188° |
| 2025-09-05 10:13 | 40.43464 | 49.73598 | 5976 ft | 264 kts | 187° |
| 2025-09-05 10:14 | 40.40035 | 49.73005 | 5973 ft | 231 kts | 187° |
| 2025-09-05 10:14 | 40.36878 | 49.72461 | 5997 ft | 229 kts | 187° |
| 2025-09-05 10:15 | 40.33715 | 49.71918 | 5991 ft | 232 kts | 187° |
| 2025-09-05 10:16 | 40.29216 | 49.73068 | 5604 ft | 231 kts | 126° |
| 2025-09-05 10:16 | 40.27746 | 49.76724 | 5189 ft | 222 kts | 116° |
| 2025-09-05 10:16 | 40.27062 | 49.78497 | 4844 ft | 221 kts | 116° |
| 2025-09-05 10:17 | 40.25982 | 49.82293 | 3956 ft | 223 kts | 104° |
| 2025-09-05 10:17 | 40.25055 | 49.86187 | 3130 ft | 226 kts | 104° |
| 2025-09-05 10:18 | 40.24085 | 49.89856 | 2976 ft | 201 kts | 104° |
| 2025-09-05 10:18 | 40.23159 | 49.93281 | 2990 ft | 199 kts | 104° |
| 2025-09-05 10:19 | 40.22401 | 49.96696 | 2977 ft | 190 kts | 85° |
| 2025-09-05 10:20 | 40.22408 | 50.01899 | 2990 ft | 191 kts | 79° |
| 2025-09-05 10:20 | 40.23913 | 50.04440 | 2983 ft | 184 kts | 36° |
| 2025-09-05 10:20 | 40.24957 | 50.05461 | 2863 ft | 189 kts | 35° |
| 2025-09-05 10:21 | 40.27341 | 50.06486 | 2605 ft | 181 kts | 3° |
| 2025-09-05 10:21 | 40.29804 | 50.06556 | 2346 ft | 171 kts | 0° |
| 2025-09-05 10:22 | 40.32125 | 50.06532 | 2113 ft | 167 kts | 0° |
| 2025-09-05 10:22 | 40.34474 | 50.06496 | 2002 ft | 168 kts | 1° |
| 2025-09-05 10:23 | 40.36860 | 50.06472 | 1753 ft | 175 kts | 2° |
| 2025-09-05 10:23 | 40.39082 | 50.06427 | 1338 ft | 143 kts | 359° |
| 2025-09-05 10:24 | 40.42000 | 50.06394 | 767 ft | 153 kts | 359° |
| 2025-09-05 10:24 | 40.43062 | 50.06337 | 629 ft | 153 kts | 2° |
| 2025-09-05 10:25 | 40.45207 | 50.06321 | 131 ft | 153 kts | 3° |
| 2025-09-05 10:25 | 40.47056 | 50.06304 | 10 ft | 87 kts | 359° |
| 2025-09-05 10:26 | 40.47532 | 50.06189 | 11 ft | 22 kts | 330° |
| 2025-09-05 10:26 | 40.47530 | 50.06087 | 13 ft | 8 kts | 188° |
| 2025-09-05 10:27 | 40.47421 | 50.06085 | 13 ft | 9 kts | 180° |
| 2025-09-05 10:28 | 40.47081 | 50.06089 | 13 ft | 18 kts | 178° |
| 2025-09-05 10:28 | 40.46945 | 50.06011 | 14 ft | 10 kts | 259° |
| 2025-09-05 10:29 | 40.46940 | 50.05822 | 14 ft | 13 kts | 268° |
| 2025-09-05 10:29 | 40.46936 | 50.05670 | 14 ft | 19 kts | 268° |
| 2025-09-05 10:29 | 40.46927 | 50.05295 | 14 ft | 19 kts | 269° |
| 2025-09-05 10:30 | 40.46897 | 50.05061 | 15 ft | 10 kts | 214° |
| 2025-09-05 10:30 | 40.46763 | 50.05035 | 14 ft | 9 kts | 195° |
| 2025-09-05 10:31 | 40.46693 | 50.05071 | 14 ft | 5 kts | 144° |
| 2025-09-05 10:32 | 40.46676 | 50.05087 | 14 ft | 0 kts | 144° |